Time;durP1;ratioP1;P1;durP2;ratioP2;P2;SDS_P1;SDS_P2;PMS_P1;PMS_P2;Temp;Humidity;BMP_temperature;BMP_pressure;BME280_temperature;BME280_humidity;BME280_pressure;Samples;Min_cycle;Max_cycle;Signal;HPM_P1;HPM_P2
2023/12/20 00:01:26;;;;;;;0.85;0.85;;;;;;;2.90;59.34;99892.16;5307193;26;20316;-92
2023/12/20 00:03:51;;;;;;;3.90;3.58;;;;;;;2.93;59.33;99883.59;5307018;26;20382;-94
2023/12/20 00:06:17;;;;;;;1.95;1.77;;;;;;;2.94;59.33;99880.16;5306510;26;20064;-92
2023/12/20 00:08:45;;;;;;;0.75;0.73;;;;;;;2.92;59.33;99879.31;5306133;26;20060;-93
2023/12/20 00:11:10;;;;;;;0.30;0.30;;;;;;;2.83;59.33;99879.28;5290897;26;20058;-93
2023/12/20 00:13:35;;;;;;;3.85;0.52;;;;;;;2.72;59.33;99872.44;5306004;26;20075;-93
2023/12/20 00:16:01;;;;;;;0.35;0.35;;;;;;;2.88;59.34;99872.47;5306098;26;20078;-93
2023/12/20 00:18:26;;;;;;;1.15;1.15;;;;;;;2.92;59.33;99867.31;5308327;26;20068;-92
2023/12/20 00:20:52;;;;;;;1.25;1.25;;;;;;;2.71;59.32;99863.00;5307513;26;20133;-91
2023/12/20 00:23:17;;;;;;;2.62;2.42;;;;;;;2.89;59.34;99862.16;5306102;26;20048;-94
2023/12/20 00:25:43;;;;;;;2.55;2.35;;;;;;;2.67;59.33;99855.28;5305736;26;20179;-94
2023/12/20 00:28:08;;;;;;;11.65;3.37;;;;;;;2.97;59.34;99854.44;5306027;26;20091;-92
2023/12/20 00:31:39;;;;;;;2.00;1.87;;;;;;;2.91;59.34;99846.75;5323925;26;20240;-93
2023/12/20 00:34:11;;;;;;;2.65;2.08;;;;;;;2.85;59.33;99846.75;5309298;26;20458;-90
2023/12/20 00:36:36;;;;;;;0.60;0.60;;;;;;;2.76;59.33;99842.44;5306750;26;20072;-91
2023/12/20 00:39:02;;;;;;;4.50;1.08;;;;;;;2.88;59.34;99837.31;5287097;26;20316;-92
2023/12/20 00:41:27;;;;;;;0.85;0.85;;;;;;;2.93;59.33;99833.03;5305171;26;20060;-91
2023/12/20 00:43:53;;;;;;;1.62;1.52;;;;;;;2.90;59.34;99820.19;5323612;26;20076;-91
2023/12/20 00:46:19;;;;;;;0.10;0.10;;;;;;;2.67;59.33;99837.31;5323189;26;20409;-92
2023/12/20 00:48:45;;;;;;;2.12;2.03;;;;;;;2.53;59.31;99832.13;5306504;26;20048;-91
2023/12/20 00:51:11;;;;;;;1.60;1.48;;;;;;;2.71;59.32;99824.44;5325853;26;20047;-91
2023/12/20 00:53:36;;;;;;;5.70;3.15;;;;;;;2.58;59.33;99822.72;5305353;26;20090;-90
2023/12/20 00:56:01;;;;;;;1.15;0.95;;;;;;;2.80;59.32;99822.72;5304241;26;29047;-90
2023/12/20 00:58:27;;;;;;;1.30;1.27;;;;;;;2.93;59.33;99806.47;5323527;26;20057;-91
2023/12/20 01:00:53;;;;;;;0.55;0.45;;;;;;;2.77;59.33;99809.03;5323512;26;20044;-88
2023/12/20 01:03:19;;;;;;;2.08;1.98;;;;;;;2.92;59.34;99797.91;5305089;26;20070;-90
2023/12/20 01:05:44;;;;;;;1.75;1.65;;;;;;;2.82;59.33;99798.72;5305344;26;20080;-90
2023/12/20 01:08:09;;;;;;;5.22;2.87;;;;;;;2.86;59.33;99789.34;5323921;26;20135;-90
2023/12/20 01:10:35;;;;;;;4.00;2.30;;;;;;;2.82;59.34;99792.75;5305087;26;20353;-90
2023/12/20 01:13:00;;;;;;;1.08;1.08;;;;;;;2.86;59.33;99781.63;5304949;26;22354;-90
2023/12/20 01:15:26;;;;;;;0.28;0.28;;;;;;;2.70;59.32;99779.03;5305597;26;20092;-89
2023/12/20 01:17:51;;;;;;;1.30;1.25;;;;;;;2.78;59.33;99777.31;5305447;26;20053;-92
2023/12/20 01:20:16;;;;;;;3.55;3.28;;;;;;;2.86;59.33;99768.78;5306239;26;20661;-91
2023/12/20 01:22:42;;;;;;;2.00;1.90;;;;;;;2.81;59.33;99775.59;5306443;26;21094;-92
2023/12/20 01:25:08;;;;;;;9.07;3.00;;;;;;;2.69;59.32;99763.63;5324647;26;20108;-93
2023/12/20 01:27:33;;;;;;;1.80;1.67;;;;;;;2.89;59.34;99764.47;5305673;26;20088;-91
2023/12/20 01:29:59;;;;;;;0.45;0.45;;;;;;;2.75;59.33;99753.34;5306123;26;20104;-91
2023/12/20 01:32:24;;;;;;;0.98;0.98;;;;;;;2.72;59.32;99755.91;5306175;26;20083;-92
2023/12/20 01:34:49;;;;;;;3.62;2.17;;;;;;;2.70;59.32;99750.78;5307302;26;20107;-91
2023/12/20 01:37:15;;;;;;;2.70;2.50;;;;;;;2.72;59.33;99754.19;5290990;26;20052;-92
2023/12/20 01:39:40;;;;;;;1.40;1.30;;;;;;;2.76;59.33;99752.47;5306095;26;20112;-90
2023/12/20 01:42:06;;;;;;;0.77;0.77;;;;;;;2.74;59.33;99746.47;5305161;26;25637;-91
2023/12/20 01:44:31;;;;;;;0.88;0.88;;;;;;;2.72;59.33;99741.34;5306067;26;22162;-90
2023/12/20 01:46:57;;;;;;;4.00;3.10;;;;;;;2.77;59.33;99739.63;5306321;26;20123;-91
2023/12/20 01:49:22;;;;;;;0.93;0.93;;;;;;;2.57;59.32;99741.34;5306471;26;20069;-91
2023/12/20 01:51:48;;;;;;;0.13;0.13;;;;;;;2.67;59.32;99730.22;5288162;26;20159;-91
2023/12/20 01:54:13;;;;;;;3.22;2.33;;;;;;;2.63;59.32;99727.66;5324752;26;20100;-91
2023/12/20 01:56:39;;;;;;;1.12;1.12;;;;;;;2.64;59.32;99721.66;5305996;26;20082;-91
2023/12/20 01:59:04;;;;;;;1.40;1.12;;;;;;;2.67;59.33;99713.94;5305755;26;20076;-89
2023/12/20 02:01:30;;;;;;;1.20;0.68;;;;;;;2.71;59.32;99708.78;5324654;26;20128;-90
2023/12/20 02:03:55;;;;;;;1.67;1.48;;;;;;;2.73;59.33;99703.66;5305990;26;20099;-90
2023/12/20 02:06:21;;;;;;;1.73;1.08;;;;;;;2.64;59.32;99693.41;5306078;26;20576;-90
2023/12/20 02:08:47;;;;;;;2.53;2.33;;;;;;;2.75;59.33;99697.66;5288165;26;20060;-90
2023/12/20 02:11:13;;;;;;;1.00;1.00;;;;;;;2.77;59.33;99692.50;5324344;26;20063;-89
2023/12/20 02:13:38;;;;;;;4.95;2.28;;;;;;;2.49;59.31;99693.38;5305679;26;20151;-90
2023/12/20 02:16:04;;;;;;;1.90;1.80;;;;;;;2.72;59.32;99686.53;5305195;26;23747;-90
2023/12/20 02:18:29;;;;;;;1.15;1.05;;;;;;;2.81;59.34;99680.50;5306331;26;20059;-90
2023/12/20 02:20:55;;;;;;;1.90;1.80;;;;;;;2.71;59.33;99677.09;5308334;26;20083;-90
2023/12/20 02:23:21;;;;;;;1.77;1.65;;;;;;;2.74;59.33;99675.38;5306340;26;20064;-90
2023/12/20 02:25:46;;;;;;;1.85;1.55;;;;;;;2.56;59.32;99672.81;5306195;26;20068;-90
2023/12/20 02:28:11;;;;;;;1.27;1.20;;;;;;;2.69;59.32;99668.53;5323595;26;23219;-89
2023/12/20 02:30:37;;;;;;;1.00;0.98;;;;;;;2.58;59.33;99668.53;5305638;26;20107;-90
2023/12/20 02:33:03;;;;;;;0.45;0.45;;;;;;;2.49;59.31;99671.13;5305714;26;20425;-90
2023/12/20 02:35:28;;;;;;;3.30;3.03;;;;;;;2.67;59.32;99668.53;5307096;26;20767;-90
2023/12/20 02:37:54;;;;;;;1.08;1.08;;;;;;;2.57;59.31;99669.41;5325755;26;20075;-93
2023/12/20 02:40:19;;;;;;;5.75;2.92;;;;;;;2.45;59.31;99675.41;5307921;26;20072;-94
2023/12/20 02:42:45;;;;;;;0.65;0.65;;;;;;;2.65;59.33;99667.69;5307088;26;20106;-92
2023/12/20 02:45:10;;;;;;;9.13;2.10;;;;;;;2.66;59.33;99653.13;5307135;26;20052;-93
2023/12/20 02:47:35;;;;;;;1.37;1.35;;;;;;;2.33;59.30;99648.88;5307530;26;20048;-93
2023/12/20 02:50:01;;;;;;;3.85;2.12;;;;;;;2.52;59.32;99645.44;5311459;26;20114;-92
2023/12/20 02:52:28;;;;;;;3.53;2.95;;;;;;;2.82;59.33;99636.78;5308711;26;20087;-92
2023/12/20 02:54:54;;;;;;;1.95;1.50;;;;;;;2.86;59.33;99635.09;5288257;26;20081;-92
2023/12/20 02:57:19;;;;;;;0.40;0.40;;;;;;;2.68;59.33;99636.00;5306538;26;20068;-90
2023/12/20 02:59:45;;;;;;;0.98;0.90;;;;;;;2.63;59.32;99627.44;5324911;26;20380;-91
2023/12/20 03:02:10;;;;;;;5.57;4.28;;;;;;;2.68;59.32;99629.13;5324805;26;20091;-91
2023/12/20 03:04:35;;;;;;;5.28;2.90;;;;;;;2.57;59.31;99628.28;5306348;26;20104;-92
2023/12/20 03:07:01;;;;;;;3.78;1.70;;;;;;;2.57;59.31;99628.28;5324397;26;20104;-91
2023/12/20 03:09:26;;;;;;;2.15;2.00;;;;;;;2.60;59.32;99627.41;5306476;26;20138;-91
2023/12/20 03:11:51;;;;;;;3.97;1.83;;;;;;;2.47;59.31;99630.03;5325294;26;20131;-91
2023/12/20 03:14:17;;;;;;;2.17;2.03;;;;;;;2.66;59.32;99630.00;5325411;26;20108;-91
2023/12/20 03:16:47;;;;;;;1.42;1.37;;;;;;;2.69;59.33;99627.41;5306618;26;20441;-91
2023/12/20 03:19:12;;;;;;;;;;;;;;;2.46;59.31;99633.44;5306705;26;20366;-90
2023/12/20 03:21:42;;;;;;;1.17;1.07;;;;;;;2.65;59.33;99636.00;5328497;26;23628;-92
2023/12/20 03:24:08;;;;;;;0.62;0.30;;;;;;;2.84;59.33;99629.06;5307138;26;20147;-92
2023/12/20 03:26:40;;;;;;;0.50;0.50;;;;;;;2.59;59.32;99629.13;5307192;26;20100;-92
2023/12/20 03:29:06;;;;;;;1.92;1.77;;;;;;;2.75;59.33;99624.81;5308702;26;20131;-91
2023/12/20 03:31:41;;;;;;;3.80;3.50;;;;;;;2.73;59.33;99627.41;5307465;26;20109;-92
2023/12/20 03:34:07;;;;;;;5.40;3.30;;;;;;;2.62;59.32;99630.88;5289566;26;20064;-92
2023/12/20 03:36:32;;;;;;;0.10;0.10;;;;;;;2.65;59.33;99633.44;5310679;26;20345;-93
2023/12/20 03:38:58;;;;;;;1.37;1.27;;;;;;;2.63;59.32;99638.56;5324802;26;20103;-90
2023/12/20 03:41:23;;;;;;;1.60;1.42;;;;;;;2.81;59.33;99640.22;5306084;26;20080;-91
2023/12/20 03:43:49;;;;;;;0.25;0.25;;;;;;;2.92;59.33;99635.94;5345057;26;20064;-92
2023/12/20 03:46:14;;;;;;;1.65;0.93;;;;;;;2.78;59.32;99633.38;5306109;26;20393;-91
2023/12/20 03:48:40;;;;;;;2.70;2.33;;;;;;;2.72;59.33;99633.41;5306615;26;20340;-91
2023/12/20 03:51:05;;;;;;;1.45;1.35;;;;;;;2.66;59.32;99625.72;5327457;26;20086;-91
2023/12/20 03:53:31;;;;;;;0.62;0.60;;;;;;;2.68;59.32;99616.28;5306272;26;20076;-92
2023/12/20 03:55:56;;;;;;;0.30;0.30;;;;;;;2.82;59.33;99617.94;5305908;26;20074;-91
2023/12/20 03:58:21;;;;;;;1.27;1.17;;;;;;;2.80;59.32;99606.81;5306278;26;20063;-90
2023/12/20 04:00:47;;;;;;;2.40;1.62;;;;;;;2.74;59.33;99610.25;5306437;26;20117;-91
2023/12/20 04:03:13;;;;;;;4.15;1.75;;;;;;;2.74;59.33;99605.13;5306432;26;20112;-91
2023/12/20 04:05:42;;;;;;;1.75;1.65;;;;;;;2.81;59.33;99606.81;5306044;26;20116;-91
2023/12/20 04:08:08;;;;;;;0.32;0.32;;;;;;;2.82;59.33;99602.53;5305791;26;20056;-89
2023/12/20 04:10:33;;;;;;;2.53;2.33;;;;;;;2.49;59.31;99599.19;5323998;26;20461;-90
2023/12/20 04:12:58;;;;;;;1.45;1.40;;;;;;;2.62;59.32;99602.59;5306320;26;20151;-90
2023/12/20 04:15:24;;;;;;;1.73;1.60;;;;;;;2.88;59.34;99608.53;5305890;26;20402;-91
2023/12/20 04:17:49;;;;;;;1.92;1.77;;;;;;;2.91;59.33;99605.09;5305629;26;20065;-89
2023/12/20 04:20:15;;;;;;;1.30;1.30;;;;;;;2.66;59.33;99594.03;5306434;26;20160;-91
2023/12/20 04:22:40;;;;;;;2.83;2.62;;;;;;;2.75;59.33;99599.13;5305936;26;20162;-90
2023/12/20 04:25:06;;;;;;;0.47;0.47;;;;;;;2.82;59.33;99603.38;5306939;26;20476;-93
2023/12/20 04:27:31;;;;;;;6.82;2.62;;;;;;;2.76;59.33;99599.13;5306582;26;20077;-92
2023/12/20 04:29:57;;;;;;;0.35;0.35;;;;;;;2.60;59.32;99599.16;5325635;26;20092;-91
2023/12/20 04:32:22;;;;;;;2.70;1.70;;;;;;;2.48;59.31;99597.47;5307194;26;20108;-91
2023/12/20 04:34:48;;;;;;;0.60;0.60;;;;;;;2.71;59.32;99590.56;5328631;26;20052;-91
2023/12/20 04:37:14;;;;;;;3.00;2.15;;;;;;;2.80;59.32;99588.81;5326229;26;20115;-92
2023/12/20 04:39:41;;;;;;;0.98;0.95;;;;;;;2.75;59.33;99582.00;5305999;26;20157;-91
2023/12/20 04:42:06;;;;;;;0.68;0.68;;;;;;;2.66;59.32;99569.19;5325413;26;20063;-93
2023/12/20 04:44:32;;;;;;;1.77;1.67;;;;;;;2.49;59.31;99573.50;5288059;26;20108;-91
2023/12/20 04:46:57;;;;;;;5.47;3.47;;;;;;;2.48;59.31;99576.94;5306864;26;20118;-93
2023/12/20 04:49:22;;;;;;;6.93;2.28;;;;;;;2.39;59.31;99569.25;5325584;26;20087;-90
2023/12/20 04:51:49;;;;;;;2.28;1.10;;;;;;;2.43;59.31;99564.09;5290502;26;20135;-91
2023/12/20 04:54:14;;;;;;;3.40;3.15;;;;;;;2.45;59.31;99553.81;5288179;26;20070;-91
2023/12/20 04:56:39;;;;;;;0.30;0.25;;;;;;;2.47;59.31;99541.81;5287356;26;20352;-89
2023/12/20 04:59:05;;;;;;;1.35;1.27;;;;;;;2.57;59.31;99540.06;5287609;26;20412;-91
2023/12/20 05:01:31;;;;;;;4.47;4.12;;;;;;;2.69;59.32;99535.75;5287475;26;20083;-90
2023/12/20 05:03:56;;;;;;;8.00;2.35;;;;;;;2.69;59.32;99525.47;5305131;26;20108;-89
2023/12/20 05:06:21;;;;;;;0.95;0.95;;;;;;;2.65;59.31;99521.22;5286906;26;20111;-88
2023/12/20 05:08:47;;;;;;;0.70;0.70;;;;;;;2.89;59.34;99543.41;5287017;26;20079;-92
2023/12/20 05:11:14;;;;;;;1.45;0.55;;;;;;;2.54;59.31;99520.37;5287878;26;20119;-91
2023/12/20 05:13:39;;;;;;;0.30;0.30;;;;;;;2.59;59.32;99518.66;5307638;26;20072;-92
2023/12/20 05:16:05;;;;;;;1.67;1.58;;;;;;;2.62;59.32;99510.09;5288524;26;20104;-92
2023/12/20 05:18:30;;;;;;;1.67;1.40;;;;;;;2.57;59.31;99507.53;5287659;26;20068;-92
2023/12/20 05:20:56;;;;;;;1.77;1.65;;;;;;;2.62;59.32;99508.38;5308645;26;20084;-94
2023/12/20 05:23:21;;;;;;;0.37;0.37;;;;;;;2.47;59.31;99527.25;5289485;26;20094;-91
2023/12/20 05:25:47;;;;;;;2.12;1.95;;;;;;;2.34;59.30;99533.28;5288920;26;20097;-93
2023/12/20 05:28:12;;;;;;;1.45;1.35;;;;;;;2.34;59.30;99537.56;5287812;26;20128;-90
2023/12/20 05:30:38;;;;;;;2.45;1.92;;;;;;;2.46;59.31;99548.69;5286946;26;20089;-90
2023/12/20 05:33:03;;;;;;;5.95;1.90;;;;;;;2.45;59.31;99546.97;5287072;26;20213;-89
2023/12/20 05:35:29;;;;;;;1.83;1.17;;;;;;;2.39;59.31;99561.53;5306566;26;20103;-90
2023/12/20 05:37:54;;;;;;;1.37;1.35;;;;;;;2.36;59.31;99577.78;5323475;26;20135;-89
2023/12/20 05:40:19;;;;;;;2.40;2.20;;;;;;;2.43;59.31;99564.09;5286358;26;20112;-90
2023/12/20 05:42:45;;;;;;;0.00;0.00;;;;;;;2.59;59.32;99551.19;5304290;26;20113;-90
2023/12/20 05:45:11;;;;;;;1.45;1.35;;;;;;;1.92;59.28;99546.19;5286987;26;20413;-90
2023/12/20 05:47:36;;;;;;;3.70;3.40;;;;;;;2.01;59.29;99528.22;5286967;26;20120;-90
2023/12/20 05:50:01;;;;;;;0.45;0.45;;;;;;;2.22;59.30;99517.91;5305990;26;20099;-90
2023/12/20 05:52:27;;;;;;;1.90;1.80;;;;;;;2.13;59.30;99534.19;5286584;26;20088;-89
2023/12/20 05:54:52;;;;;;;1.15;1.05;;;;;;;2.01;59.28;99536.78;5286053;26;20114;-89
2023/12/20 05:57:18;;;;;;;0.10;0.10;;;;;;;2.13;59.30;99523.94;5286556;26;20449;-90
2023/12/20 05:59:43;;;;;;;1.73;1.62;;;;;;;2.23;59.30;99523.91;5286307;26;20092;-90
2023/12/20 06:02:08;;;;;;;0.00;0.00;;;;;;;2.27;59.29;99521.31;5286496;26;20112;-91
2023/12/20 06:04:34;;;;;;;1.25;0.93;;;;;;;2.27;59.29;99518.75;5286306;26;23838;-90
2023/12/20 06:06:59;;;;;;;4.32;2.35;;;;;;;2.33;59.30;99511.03;5305370;26;20068;-91
2023/12/20 06:09:26;;;;;;;0.95;0.95;;;;;;;2.27;59.29;99512.75;5286400;26;20064;-90
2023/12/20 06:11:52;;;;;;;7.55;2.62;;;;;;;2.41;59.31;99500.75;5306903;26;20421;-91
2023/12/20 06:14:17;;;;;;;1.02;1.02;;;;;;;2.45;59.31;99495.59;5305674;26;20075;-90
2023/12/20 06:16:42;;;;;;;2.30;2.10;;;;;;;2.55;59.31;99496.41;5305001;26;20107;-91
2023/12/20 06:19:08;;;;;;;1.80;1.70;;;;;;;2.56;59.32;99498.09;5305772;26;20112;-90
2023/12/20 06:21:33;;;;;;;0.85;0.85;;;;;;;2.47;59.31;99493.00;5289311;26;20107;-91
2023/12/20 06:23:59;;;;;;;0.73;0.73;;;;;;;2.42;59.30;99492.19;5288101;26;20519;-90
2023/12/20 06:26:25;;;;;;;0.15;0.15;;;;;;;2.45;59.31;99495.59;5287825;26;20067;-90
2023/12/20 06:28:50;;;;;;;1.17;1.15;;;;;;;2.71;59.32;99497.19;5287344;26;20080;-89
2023/12/20 06:31:15;;;;;;;1.80;1.70;;;;;;;2.54;59.31;99496.41;5305882;26;20109;-90
2023/12/20 06:33:42;;;;;;;9.73;1.42;;;;;;;2.52;59.31;99501.56;5287231;26;20067;-90
2023/12/20 06:36:11;;;;;;;0.37;0.37;;;;;;;2.51;59.32;99507.56;5288647;26;20064;-90
2023/12/20 06:38:36;;;;;;;0.60;0.60;;;;;;;2.39;59.31;99515.31;5324485;26;20056;-90
2023/12/20 06:41:20;;;;;;;0.32;0.32;;;;;;;2.57;59.31;99522.09;5287483;26;20122;-90
2023/12/20 06:43:47;;;;;;;0.13;0.13;;;;;;;2.60;59.32;99529.78;5324589;26;20053;-89
2023/12/20 06:46:13;;;;;;;2.87;2.67;;;;;;;2.42;59.30;99529.00;5306223;26;20113;-91
2023/12/20 06:48:38;;;;;;;0.20;0.20;;;;;;;2.41;59.30;99544.41;5325861;26;20060;-91
2023/12/20 06:51:04;;;;;;;1.92;1.67;;;;;;;2.07;59.29;99556.44;5308229;26;20070;-91
2023/12/20 06:53:29;;;;;;;0.45;0.45;;;;;;;2.08;59.29;99556.44;5306127;26;23084;-90
2023/12/20 06:55:56;;;;;;;1.50;1.37;;;;;;;2.04;59.28;99548.75;5305985;26;20341;-91
2023/12/20 06:58:21;;;;;;;1.05;0.98;;;;;;;2.08;59.29;99541.03;5324785;26;20072;-90
2023/12/20 07:00:47;;;;;;;1.25;0.93;;;;;;;2.12;59.29;99539.31;5306368;26;20331;-90
2023/12/20 07:03:12;;;;;;;1.23;1.20;;;;;;;1.91;59.27;99547.06;5305824;26;20056;-89
2023/12/20 07:05:38;;;;;;;9.10;5.20;;;;;;;1.91;59.27;99544.50;5306572;26;20114;-91
2023/12/20 07:08:04;;;;;;;6.10;2.05;;;;;;;1.66;59.27;99549.63;5324834;26;20078;-91
2023/12/20 07:10:30;;;;;;;2.37;1.77;;;;;;;1.65;59.26;99552.16;5306377;26;20060;-91
2023/12/20 07:12:56;;;;;;;0.00;0.00;;;;;;;1.45;59.25;99550.44;5324729;26;20131;-90
2023/12/20 07:15:22;;;;;;;3.20;3.00;;;;;;;1.47;59.25;99542.75;5306570;26;20411;-91
2023/12/20 07:26:38;;;;;;;2.58;2.37;;;;;;;1.38;59.24;99545.28;5157207;27;20470;-93
2023/12/20 07:30:28;;;;;;;1.20;0.88;;;;;;;1.64;59.26;99542.75;5147959;27;20108;-92
2023/12/20 07:46:51;;;;;;;3.08;2.03;;;;;;;1.71;59.27;99550.47;5216415;27;20026;-95
2023/12/20 07:49:17;;;;;;;0.73;0.62;;;;;;;1.83;59.27;99539.34;5244497;27;20029;-92
2023/12/20 07:51:42;;;;;;;9.35;2.40;;;;;;;1.90;59.27;99548.78;5280617;27;20168;-95
2023/12/20 08:04:35;;;;;;;0.55;0.55;;;;;;;1.98;59.28;99523.09;5250121;27;20069;-94
2023/12/20 08:07:01;;;;;;;0.10;0.10;;;;;;;2.08;59.29;99524.78;5287543;26;20056;-94
2023/12/20 08:09:26;;;;;;;1.27;1.23;;;;;;;2.22;59.30;99519.63;5309940;26;20081;-92
2023/12/20 08:15:39;;;;;;;3.33;3.08;;;;;;;2.30;59.31;99516.16;5346608;26;20124;-95
2023/12/20 08:19:02;;;;;;;2.95;1.95;;;;;;;2.33;59.30;99515.31;5275923;26;20053;-94
2023/12/20 08:29:50;;;;;;;6.75;2.10;;;;;;;2.57;59.32;99524.66;5256101;27;20069;-93
2023/12/20 08:32:16;;;;;;;0.77;0.68;;;;;;;2.55;59.31;99527.22;5262100;27;20052;-95
2023/12/20 08:34:41;;;;;;;3.45;3.17;;;;;;;2.64;59.33;99524.66;5267531;27;20095;-92
2023/12/20 08:37:11;;;;;;;3.55;3.22;;;;;;;2.71;59.32;99522.91;5269549;27;20078;-96
2023/12/20 08:39:36;;;;;;;0.65;0.62;;;;;;;2.54;59.31;99519.53;5290453;27;20091;-95
2023/12/20 08:42:02;;;;;;;2.12;1.92;;;;;;;2.79;59.32;99521.16;5272545;27;20406;-94
2023/12/20 08:44:27;;;;;;;4.25;2.35;;;;;;;2.83;59.33;99525.41;5267535;27;20060;-91
2023/12/20 08:46:53;;;;;;;1.42;1.17;;;;;;;2.89;59.34;99527.13;5265296;27;20401;-91
2023/12/20 08:49:18;;;;;;;1.17;1.00;;;;;;;2.96;59.34;99527.06;5266129;27;20076;-92
2023/12/20 08:51:44;;;;;;;1.50;1.48;;;;;;;2.84;59.34;99533.97;5267654;27;20367;-92
2023/12/20 08:54:10;;;;;;;0.98;0.98;;;;;;;2.82;59.34;99527.97;5279132;26;20112;-93
2023/12/20 08:56:35;;;;;;;2.87;1.08;;;;;;;2.87;59.33;99531.41;5288780;26;20113;-92
2023/12/20 08:59:00;;;;;;;3.20;2.87;;;;;;;3.14;59.35;99526.13;5288013;26;20079;-91
2023/12/20 09:01:29;;;;;;;2.42;2.20;;;;;;;3.24;59.36;99525.19;5306737;26;20445;-93
2023/12/20 09:04:24;;;;;;;4.53;3.50;;;;;;;3.22;59.35;99528.63;5312252;26;20063;-96
2023/12/20 09:06:55;;;;;;;5.53;2.60;;;;;;;3.24;59.35;99529.47;5308935;26;20056;-96
2023/12/20 09:09:25;;;;;;;2.85;1.95;;;;;;;3.43;59.36;99536.22;5310984;26;20170;-94
2023/12/20 10:57:56;;;;;;;1.42;1.15;;;;;;;5.94;59.51;99381.78;5368036;26;20060;-90
2023/12/20 11:01:12;;;;;;;1.62;1.50;;;;;;;5.96;59.50;99383.47;5331978;26;20719;-94
2023/12/20 12:14:07;;;;;;;2.37;1.02;;;;;;;7.88;59.62;99252.03;5367807;26;20063;-90
2023/12/20 12:16:46;;;;;;;0.40;0.40;;;;;;;8.05;59.62;99250.69;5310047;26;20078;-93
2023/12/20 13:09:54;;;;;;;0.55;0.55;;;;;;;7.43;59.59;99256.75;5332712;26;20078;-92
2023/12/20 13:12:19;;;;;;;0.00;0.00;;;;;;;7.49;59.59;99272.13;5311591;26;20134;-90
2023/12/20 13:14:55;;;;;;;0.73;0.73;;;;;;;7.41;59.59;99270.63;5308839;26;20368;-90
2023/12/20 13:17:20;;;;;;;0.70;0.32;;;;;;;7.24;59.57;99276.25;5329000;26;20386;-91
2023/12/20 13:20:40;;;;;;;0.10;0.10;;;;;;;7.17;59.57;99270.41;5309517;26;20060;-95
2023/12/20 13:23:05;;;;;;;3.62;1.98;;;;;;;7.25;59.59;99267.59;5341195;26;20104;-91
2023/12/20 13:25:31;;;;;;;0.30;0.30;;;;;;;7.05;59.57;99257.75;5346132;26;20048;-91
2023/12/20 13:40:04;;;;;;;;;;;;;;;;;;;;;
2023/12/20 13:46:46;;;;;;;0.65;0.65;;;;;;;6.75;59.55;99280.06;5067836;28;20132;-92
2023/12/20 13:52:26;;;;;;;0.55;0.55;;;;;;;6.43;59.54;99279.09;5012818;28;20763;-87
2023/12/20 13:55:02;;;;;;;1.70;1.60;;;;;;;6.31;59.53;99270.75;5101756;28;20090;-90
2023/12/20 13:57:29;;;;;;;0.00;0.00;;;;;;;6.21;59.53;99270.13;5094619;28;20131;-90
2023/12/20 13:59:57;;;;;;;1.85;1.45;;;;;;;6.26;59.52;99270.00;5183587;27;20067;-89
2023/12/20 14:02:23;;;;;;;0.93;0.93;;;;;;;6.17;59.52;99278.81;5218496;27;20061;-89
2023/12/20 14:04:51;;;;;;;0.65;0.65;;;;;;;6.16;59.52;99282.28;5239116;27;20092;-91
2023/12/20 14:13:23;;;;;;;0.10;0.10;;;;;;;6.24;59.52;99292.47;5255306;27;20179;-90
2023/12/20 14:15:55;;;;;;;0.30;0.30;;;;;;;5.99;59.51;99284.37;5240109;27;20131;-90
2023/12/20 14:18:21;;;;;;;0.13;0.13;;;;;;;6.05;59.51;99279.06;5240699;27;20080;-88
2023/12/20 14:21:36;;;;;;;;;;;;;;;;;;;;;
2023/12/20 15:02:45;;;;;;;0.32;0.32;;;;;;;5.91;59.51;99322.41;5314507;26;20091;-88
2023/12/20 15:24:28;;;;;;;1.95;1.85;;;;;;;5.89;59.50;99355.13;5308315;26;20081;-88
2023/12/20 15:27:11;;;;;;;2.00;1.90;;;;;;;6.01;59.51;99352.38;5329143;26;20068;-89
2023/12/20 15:57:27;;;;;;;0.30;0.30;;;;;;;5.86;59.50;99387.03;5180094;27;20066;-93
2023/12/20 16:19:37;;;;;;;1.00;1.00;;;;;;;5.86;59.50;99385.31;5196383;27;20065;-92
2023/12/20 16:22:03;;;;;;;2.15;1.95;;;;;;;5.89;59.50;99383.56;5236118;27;20060;-85
2023/12/20 16:24:32;;;;;;;1.62;0.93;;;;;;;5.84;59.51;99379.34;5236095;27;20070;-90
2023/12/20 16:26:57;;;;;;;1.75;1.45;;;;;;;5.87;59.50;99381.84;5251389;27;20145;-88
2023/12/20 16:29:23;;;;;;;0.30;0.30;;;;;;;5.74;59.49;99387.28;5296603;27;20068;-91
2023/12/20 16:31:49;;;;;;;1.02;0.80;;;;;;;5.79;59.50;99373.41;5240693;27;20068;-87
2023/12/20 16:34:14;;;;;;;0.70;0.62;;;;;;;5.74;59.49;99359.72;5258702;27;20057;-88
2023/12/20 16:36:54;;;;;;;0.62;0.62;;;;;;;5.80;59.50;99382.00;5176514;27;3339421;-89
2023/12/20 16:39:20;;;;;;;0.10;0.10;;;;;;;5.76;59.50;99377.78;5259144;27;20077;-89
2023/12/20 16:41:48;;;;;;;0.77;0.77;;;;;;;5.92;59.51;99383.56;5244676;27;20395;-89
2023/12/20 16:44:37;;;;;;;0.70;0.45;;;;;;;5.86;59.50;99394.78;5276861;27;20058;-91
2023/12/20 16:47:04;;;;;;;1.10;0.88;;;;;;;5.72;59.49;99402.81;5283285;27;20107;-88
2023/12/20 16:49:29;;;;;;;3.00;1.75;;;;;;;5.71;59.50;99392.50;5258389;27;20077;-89
2023/12/20 16:52:03;;;;;;;0.10;0.10;;;;;;;5.61;59.49;99394.38;5255445;27;20049;-89
2023/12/20 16:54:30;;;;;;;7.65;1.70;;;;;;;5.64;59.49;99399.50;5254627;27;20076;-87
2023/12/20 16:56:55;;;;;;;4.68;1.85;;;;;;;5.53;59.49;99407.44;5254515;27;20066;-87
2023/12/20 16:59:21;;;;;;;1.58;1.48;;;;;;;5.45;59.48;99414.47;5235994;27;20683;-90
2023/12/20 17:02:08;;;;;;;;;;;;;;;;;;;;;
2023/12/20 17:04:48;;;;;;;;;;;;;;;;;;;;;
2023/12/20 17:07:30;;;;;;;1.15;1.00;;;;;;;5.51;59.48;99416.94;5275747;27;36798;-90
2023/12/20 17:09:56;;;;;;;2.85;1.08;;;;;;;5.38;59.47;99427.47;5251308;27;20057;-91
2023/12/20 17:12:31;;;;;;;0.65;0.65;;;;;;;5.48;59.48;99429.06;5239165;27;20380;-90
2023/12/20 17:15:08;;;;;;;1.37;0.45;;;;;;;5.17;59.47;99441.56;5238916;27;20061;-89
2023/12/20 17:17:37;;;;;;;0.77;0.77;;;;;;;5.37;59.47;99446.44;5276522;27;20763;-92
2023/12/20 17:20:03;;;;;;;0.00;0.00;;;;;;;5.34;59.47;99452.50;5276779;27;20091;-87
2023/12/20 17:22:29;;;;;;;0.52;0.52;;;;;;;5.25;59.47;99450.06;5277886;27;20071;-89
2023/12/20 17:24:54;;;;;;;0.37;0.35;;;;;;;5.13;59.46;99458.81;5296813;27;20439;-88
2023/12/20 17:27:20;;;;;;;1.85;1.12;;;;;;;5.34;59.47;99464.53;5278925;27;20671;-87
2023/12/20 17:29:45;;;;;;;1.77;1.67;;;;;;;5.34;59.48;99462.81;5278842;27;20072;-87
2023/12/20 17:32:11;;;;;;;1.77;1.15;;;;;;;5.43;59.48;99469.56;5298355;27;20124;-88
2023/12/20 17:34:36;;;;;;;1.12;0.45;;;;;;;5.47;59.48;99464.34;5296601;27;20442;-87
2023/12/20 17:37:02;;;;;;;0.75;0.75;;;;;;;5.33;59.48;99470.59;5260788;27;20111;-90
2023/12/20 17:39:38;;;;;;;6.32;2.72;;;;;;;5.06;59.46;99464.97;5279433;27;20049;-90
2023/12/20 17:42:03;;;;;;;1.23;1.12;;;;;;;5.22;59.46;99469.03;5279685;27;20060;-89
2023/12/20 17:44:29;;;;;;;2.45;2.28;;;;;;;5.44;59.48;99473.84;5279433;27;20076;-90
2023/12/20 17:46:54;;;;;;;1.62;1.52;;;;;;;5.40;59.48;99470.47;5279169;27;20376;-90
2023/12/20 17:49:20;;;;;;;0.95;0.90;;;;;;;5.41;59.48;99468.72;5279314;27;20105;-88
2023/12/20 17:51:46;;;;;;;0.57;0.55;;;;;;;5.35;59.47;99474.00;5261364;27;20405;-89
2023/12/20 17:54:46;;;;;;;0.85;0.85;;;;;;;5.18;59.47;99484.56;5279591;27;20448;-92
2023/12/20 17:57:15;;;;;;;;;;;;;;;4.97;59.45;99482.28;5261368;27;20080;-89
2023/12/20 17:59:45;;;;;;;0.20;0.20;;;;;;;4.83;59.44;99488.50;5261309;27;19960;-90
2023/12/20 18:02:11;;;;;;;1.83;1.73;;;;;;;4.78;59.44;99481.69;5261061;27;20419;-89
2023/12/20 18:04:36;;;;;;;0.52;0.52;;;;;;;4.82;59.45;99488.50;5296696;27;20076;-90
2023/12/20 18:07:04;;;;;;;1.37;1.30;;;;;;;4.88;59.45;99496.16;5278864;27;20113;-90
2023/12/20 18:09:32;;;;;;;0.43;0.43;;;;;;;5.02;59.46;99496.84;5297390;27;20045;-88
2023/12/20 18:12:01;;;;;;;0.52;0.52;;;;;;;5.04;59.46;99495.09;5260555;27;20053;-87
2023/12/20 18:14:27;;;;;;;0.30;0.30;;;;;;;4.84;59.44;99491.91;5299284;27;20060;-85
2023/12/20 18:16:54;;;;;;;1.35;1.25;;;;;;;4.95;59.46;99502.94;5279268;27;20436;-84
2023/12/20 18:19:20;;;;;;;1.50;1.40;;;;;;;4.72;59.43;99507.53;5279260;27;20069;-88
2023/12/20 18:21:46;;;;;;;3.35;1.90;;;;;;;4.78;59.44;99502.31;5279280;27;20111;-88
2023/12/20 18:24:13;;;;;;;0.22;0.22;;;;;;;4.59;59.43;99499.09;5297901;27;20068;-88
2023/12/20 18:26:39;;;;;;;1.30;1.20;;;;;;;4.52;59.43;99498.34;5299165;27;20402;-90
2023/12/20 18:29:13;;;;;;;2.67;2.15;;;;;;;4.54;59.43;99501.75;5279586;27;20053;-93
2023/12/20 18:35:59;;;;;;;1.12;0.47;;;;;;;4.52;59.43;99500.06;5276995;27;20068;-92
2023/12/20 18:39:08;;;;;;;;;;;;;;;;;;;;;
2023/12/20 18:42:18;;;;;;;3.03;1.92;;;;;;;4.51;59.43;99495.78;5253804;27;35499;-93